sensor_id;sensor_type;location;lat;lon;timestamp;P1;durP1;ratioP1;P2;durP2;ratioP2
5722;SDS011;2886;49.722;8.612;2023-03-16T00:01:17;6.00;;;3.70;;
5722;SDS011;2886;49.722;8.612;2023-03-16T00:03:43;5.77;;;4.30;;
5722;SDS011;2886;49.722;8.612;2023-03-16T00:06:09;8.53;;;4.40;;
5722;SDS011;2886;49.722;8.612;2023-03-16T00:08:35;8.20;;;4.50;;
5722;SDS011;2886;49.722;8.612;2023-03-16T00:11:02;7.43;;;4.43;;
5722;SDS011;2886;49.722;8.612;2023-03-16T00:13:28;11.17;;;4.83;;
5722;SDS011;2886;49.722;8.612;2023-03-16T00:15:58;9.17;;;5.17;;
5722;SDS011;2886;49.722;8.612;2023-03-16T00:18:26;8.90;;;4.43;;
5722;SDS011;2886;49.722;8.612;2023-03-16T00:20:57;12.67;;;5.37;;
5722;SDS011;2886;49.722;8.612;2023-03-16T00:23:24;11.13;;;6.00;;
5722;SDS011;2886;49.722;8.612;2023-03-16T00:25:56;11.23;;;5.83;;
5722;SDS011;2886;49.722;8.612;2023-03-16T00:28:24;8.70;;;5.17;;
5722;SDS011;2886;49.722;8.612;2023-03-16T00:30:51;8.30;;;4.80;;
5722;SDS011;2886;49.722;8.612;2023-03-16T00:33:22;9.57;;;5.40;;
5722;SDS011;2886;49.722;8.612;2023-03-16T00:35:49;12.10;;;4.77;;
5722;SDS011;2886;49.722;8.612;2023-03-16T00:38:16;9.27;;;6.07;;
5722;SDS011;2886;49.722;8.612;2023-03-16T00:40:51;10.87;;;5.60;;
5722;SDS011;2886;49.722;8.612;2023-03-16T00:43:17;8.63;;;4.93;;
5722;SDS011;2886;49.722;8.612;2023-03-16T00:45:43;12.13;;;5.60;;
5722;SDS011;2886;49.722;8.612;2023-03-16T00:48:09;14.20;;;6.80;;
5722;SDS011;2886;49.722;8.612;2023-03-16T00:50:35;13.40;;;6.37;;
5722;SDS011;2886;49.722;8.612;2023-03-16T00:53:01;10.97;;;5.20;;
5722;SDS011;2886;49.722;8.612;2023-03-16T00:55:27;8.63;;;5.30;;
5722;SDS011;2886;49.722;8.612;2023-03-16T00:57:53;12.07;;;5.90;;
5722;SDS011;2886;49.722;8.612;2023-03-16T01:00:19;7.83;;;4.80;;
5722;SDS011;2886;49.722;8.612;2023-03-16T01:02:46;8.60;;;5.13;;
5722;SDS011;2886;49.722;8.612;2023-03-16T01:05:12;10.20;;;5.23;;
5722;SDS011;2886;49.722;8.612;2023-03-16T01:07:38;6.73;;;4.33;;
5722;SDS011;2886;49.722;8.612;2023-03-16T01:10:05;8.87;;;5.20;;
5722;SDS011;2886;49.722;8.612;2023-03-16T01:12:33;11.67;;;4.40;;
5722;SDS011;2886;49.722;8.612;2023-03-16T01:14:59;14.00;;;4.23;;
5722;SDS011;2886;49.722;8.612;2023-03-16T01:17:25;8.40;;;4.67;;
5722;SDS011;2886;49.722;8.612;2023-03-16T01:19:52;4.30;;;3.67;;
5722;SDS011;2886;49.722;8.612;2023-03-16T01:22:20;9.57;;;5.17;;
5722;SDS011;2886;49.722;8.612;2023-03-16T01:24:47;9.63;;;5.00;;
5722;SDS011;2886;49.722;8.612;2023-03-16T01:27:13;6.40;;;4.20;;
5722;SDS011;2886;49.722;8.612;2023-03-16T01:29:39;10.60;;;4.60;;
5722;SDS011;2886;49.722;8.612;2023-03-16T01:32:07;8.40;;;4.90;;
5722;SDS011;2886;49.722;8.612;2023-03-16T01:34:33;7.03;;;4.40;;
5722;SDS011;2886;49.722;8.612;2023-03-16T01:37:03;10.43;;;5.33;;
5722;SDS011;2886;49.722;8.612;2023-03-16T01:39:29;12.20;;;5.00;;
5722;SDS011;2886;49.722;8.612;2023-03-16T01:41:55;10.70;;;4.70;;
5722;SDS011;2886;49.722;8.612;2023-03-16T01:44:22;10.77;;;5.07;;
5722;SDS011;2886;49.722;8.612;2023-03-16T01:46:54;11.70;;;5.07;;
5722;SDS011;2886;49.722;8.612;2023-03-16T01:49:22;10.07;;;5.50;;
5722;SDS011;2886;49.722;8.612;2023-03-16T01:54:30;8.30;;;5.10;;
5722;SDS011;2886;49.722;8.612;2023-03-16T01:59:52;8.30;;;4.57;;
5722;SDS011;2886;49.722;8.612;2023-03-16T02:02:23;6.87;;;4.10;;
5722;SDS011;2886;49.722;8.612;2023-03-16T02:07:17;9.50;;;5.60;;
5722;SDS011;2886;49.722;8.612;2023-03-16T02:09:45;8.57;;;5.40;;
5722;SDS011;2886;49.722;8.612;2023-03-16T02:12:14;8.63;;;5.10;;
5722;SDS011;2886;49.722;8.612;2023-03-16T02:14:45;15.00;;;5.70;;
5722;SDS011;2886;49.722;8.612;2023-03-16T02:17:15;7.13;;;4.80;;
5722;SDS011;2886;49.722;8.612;2023-03-16T02:22:11;7.63;;;4.47;;
5722;SDS011;2886;49.722;8.612;2023-03-16T02:24:38;8.53;;;4.53;;
5722;SDS011;2886;49.722;8.612;2023-03-16T02:27:07;12.13;;;6.10;;
5722;SDS011;2886;49.722;8.612;2023-03-16T02:29:46;9.10;;;4.50;;
5722;SDS011;2886;49.722;8.612;2023-03-16T02:32:40;12.57;;;5.87;;
5722;SDS011;2886;49.722;8.612;2023-03-16T02:35:08;6.10;;;4.30;;
5722;SDS011;2886;49.722;8.612;2023-03-16T02:37:34;7.57;;;5.60;;
5722;SDS011;2886;49.722;8.612;2023-03-16T02:40:00;10.23;;;5.47;;
5722;SDS011;2886;49.722;8.612;2023-03-16T02:42:33;6.00;;;4.20;;
5722;SDS011;2886;49.722;8.612;2023-03-16T02:44:59;11.00;;;5.30;;
5722;SDS011;2886;49.722;8.612;2023-03-16T02:47:33;7.97;;;4.80;;
5722;SDS011;2886;49.722;8.612;2023-03-16T02:50:01;9.30;;;5.50;;
5722;SDS011;2886;49.722;8.612;2023-03-16T02:52:31;10.77;;;5.70;;
5722;SDS011;2886;49.722;8.612;2023-03-16T02:54:59;10.13;;;5.17;;
5722;SDS011;2886;49.722;8.612;2023-03-16T02:57:24;8.27;;;4.90;;
5722;SDS011;2886;49.722;8.612;2023-03-16T02:59:50;7.47;;;4.30;;
5722;SDS011;2886;49.722;8.612;2023-03-16T03:02:16;9.00;;;4.60;;
5722;SDS011;2886;49.722;8.612;2023-03-16T03:04:41;6.97;;;4.30;;
5722;SDS011;2886;49.722;8.612;2023-03-16T03:07:10;7.80;;;4.60;;
5722;SDS011;2886;49.722;8.612;2023-03-16T03:09:39;8.27;;;4.67;;
5722;SDS011;2886;49.722;8.612;2023-03-16T03:12:08;10.90;;;4.43;;
5722;SDS011;2886;49.722;8.612;2023-03-16T03:14:34;8.47;;;5.10;;
5722;SDS011;2886;49.722;8.612;2023-03-16T03:17:04;9.10;;;4.40;;
5722;SDS011;2886;49.722;8.612;2023-03-16T03:19:33;7.03;;;4.40;;
5722;SDS011;2886;49.722;8.612;2023-03-16T03:21:59;13.30;;;5.10;;
5722;SDS011;2886;49.722;8.612;2023-03-16T03:24:28;8.80;;;4.80;;
5722;SDS011;2886;49.722;8.612;2023-03-16T03:26:55;14.10;;;5.13;;
5722;SDS011;2886;49.722;8.612;2023-03-16T03:29:22;7.90;;;4.03;;
5722;SDS011;2886;49.722;8.612;2023-03-16T03:31:48;7.80;;;4.77;;
5722;SDS011;2886;49.722;8.612;2023-03-16T03:34:13;8.03;;;4.23;;
5722;SDS011;2886;49.722;8.612;2023-03-16T03:36:39;8.97;;;4.80;;
5722;SDS011;2886;49.722;8.612;2023-03-16T03:39:05;8.37;;;5.03;;
5722;SDS011;2886;49.722;8.612;2023-03-16T03:41:31;8.27;;;4.60;;
5722;SDS011;2886;49.722;8.612;2023-03-16T03:43:58;7.70;;;4.27;;
5722;SDS011;2886;49.722;8.612;2023-03-16T03:46:25;5.83;;;4.63;;
5722;SDS011;2886;49.722;8.612;2023-03-16T03:48:51;8.23;;;5.00;;
5722;SDS011;2886;49.722;8.612;2023-03-16T03:51:16;6.67;;;4.37;;
5722;SDS011;2886;49.722;8.612;2023-03-16T03:53:42;10.90;;;6.30;;
5722;SDS011;2886;49.722;8.612;2023-03-16T03:56:08;7.40;;;5.00;;
5722;SDS011;2886;49.722;8.612;2023-03-16T03:58:34;8.40;;;4.63;;
5722;SDS011;2886;49.722;8.612;2023-03-16T04:00:59;10.20;;;5.20;;
5722;SDS011;2886;49.722;8.612;2023-03-16T04:03:25;9.47;;;5.40;;
5722;SDS011;2886;49.722;8.612;2023-03-16T04:05:52;7.60;;;4.60;;
5722;SDS011;2886;49.722;8.612;2023-03-16T04:08:17;8.00;;;4.70;;
5722;SDS011;2886;49.722;8.612;2023-03-16T04:10:43;9.90;;;4.50;;
5722;SDS011;2886;49.722;8.612;2023-03-16T04:13:08;11.97;;;5.40;;
5722;SDS011;2886;49.722;8.612;2023-03-16T04:15:34;11.53;;;5.17;;
5722;SDS011;2886;49.722;8.612;2023-03-16T04:18:02;11.03;;;5.10;;
5722;SDS011;2886;49.722;8.612;2023-03-16T04:20:29;7.50;;;4.40;;
5722;SDS011;2886;49.722;8.612;2023-03-16T04:22:54;8.73;;;4.13;;
5722;SDS011;2886;49.722;8.612;2023-03-16T04:25:23;7.80;;;4.37;;
5722;SDS011;2886;49.722;8.612;2023-03-16T04:27:50;8.07;;;4.60;;
5722;SDS011;2886;49.722;8.612;2023-03-16T04:30:16;9.30;;;5.63;;
5722;SDS011;2886;49.722;8.612;2023-03-16T04:32:42;6.90;;;4.50;;
5722;SDS011;2886;49.722;8.612;2023-03-16T04:35:08;8.50;;;5.33;;
5722;SDS011;2886;49.722;8.612;2023-03-16T04:37:34;10.83;;;5.00;;
5722;SDS011;2886;49.722;8.612;2023-03-16T04:40:00;10.73;;;4.77;;
5722;SDS011;2886;49.722;8.612;2023-03-16T04:42:34;7.83;;;4.57;;
5722;SDS011;2886;49.722;8.612;2023-03-16T04:45:00;9.80;;;4.77;;
5722;SDS011;2886;49.722;8.612;2023-03-16T04:47:25;8.60;;;4.63;;
5722;SDS011;2886;49.722;8.612;2023-03-16T04:49:51;15.10;;;5.10;;
5722;SDS011;2886;49.722;8.612;2023-03-16T04:52:17;11.23;;;5.27;;
5722;SDS011;2886;49.722;8.612;2023-03-16T04:54:43;6.43;;;4.70;;
5722;SDS011;2886;49.722;8.612;2023-03-16T04:57:09;10.73;;;5.10;;
5722;SDS011;2886;49.722;8.612;2023-03-16T04:59:35;7.30;;;4.80;;
5722;SDS011;2886;49.722;8.612;2023-03-16T05:02:00;7.87;;;4.97;;
5722;SDS011;2886;49.722;8.612;2023-03-16T05:04:26;7.27;;;5.30;;
5722;SDS011;2886;49.722;8.612;2023-03-16T05:06:52;10.40;;;5.40;;
5722;SDS011;2886;49.722;8.612;2023-03-16T05:09:18;7.47;;;4.60;;
5722;SDS011;2886;49.722;8.612;2023-03-16T05:11:44;9.97;;;4.30;;
5722;SDS011;2886;49.722;8.612;2023-03-16T05:14:10;6.90;;;4.00;;
5722;SDS011;2886;49.722;8.612;2023-03-16T05:16:36;5.43;;;4.00;;
5722;SDS011;2886;49.722;8.612;2023-03-16T05:19:01;6.53;;;4.40;;
5722;SDS011;2886;49.722;8.612;2023-03-16T05:21:28;6.07;;;5.00;;
5722;SDS011;2886;49.722;8.612;2023-03-16T05:23:56;7.80;;;5.00;;
5722;SDS011;2886;49.722;8.612;2023-03-16T05:26:22;11.43;;;5.17;;
5722;SDS011;2886;49.722;8.612;2023-03-16T05:28:49;8.30;;;4.63;;
5722;SDS011;2886;49.722;8.612;2023-03-16T05:31:16;7.90;;;4.30;;
5722;SDS011;2886;49.722;8.612;2023-03-16T05:33:42;6.30;;;4.27;;
5722;SDS011;2886;49.722;8.612;2023-03-16T05:36:09;9.43;;;4.23;;
5722;SDS011;2886;49.722;8.612;2023-03-16T05:38:36;8.10;;;4.37;;
5722;SDS011;2886;49.722;8.612;2023-03-16T05:41:03;6.53;;;4.80;;
5722;SDS011;2886;49.722;8.612;2023-03-16T05:43:29;5.20;;;3.90;;
5722;SDS011;2886;49.722;8.612;2023-03-16T05:45:56;12.67;;;4.40;;
5722;SDS011;2886;49.722;8.612;2023-03-16T05:48:22;8.67;;;5.03;;
5722;SDS011;2886;49.722;8.612;2023-03-16T05:50:50;5.97;;;4.37;;
5722;SDS011;2886;49.722;8.612;2023-03-16T05:53:15;8.30;;;4.60;;
5722;SDS011;2886;49.722;8.612;2023-03-16T05:55:41;6.50;;;4.10;;
5722;SDS011;2886;49.722;8.612;2023-03-16T05:58:07;7.97;;;4.83;;
5722;SDS011;2886;49.722;8.612;2023-03-16T06:00:32;9.23;;;5.33;;
5722;SDS011;2886;49.722;8.612;2023-03-16T06:02:58;7.77;;;5.47;;
5722;SDS011;2886;49.722;8.612;2023-03-16T06:05:25;7.90;;;4.10;;
5722;SDS011;2886;49.722;8.612;2023-03-16T06:07:52;11.43;;;5.57;;
5722;SDS011;2886;49.722;8.612;2023-03-16T06:10:20;10.50;;;6.50;;
5722;SDS011;2886;49.722;8.612;2023-03-16T06:12:46;10.43;;;5.63;;
5722;SDS011;2886;49.722;8.612;2023-03-16T06:15:11;14.60;;;6.00;;
5722;SDS011;2886;49.722;8.612;2023-03-16T06:17:37;9.83;;;5.50;;
5722;SDS011;2886;49.722;8.612;2023-03-16T06:20:04;13.50;;;7.30;;
5722;SDS011;2886;49.722;8.612;2023-03-16T06:22:37;17.93;;;7.20;;
5722;SDS011;2886;49.722;8.612;2023-03-16T06:25:05;15.53;;;6.70;;
5722;SDS011;2886;49.722;8.612;2023-03-16T06:27:32;11.80;;;7.10;;
5722;SDS011;2886;49.722;8.612;2023-03-16T06:29:58;18.23;;;6.93;;
5722;SDS011;2886;49.722;8.612;2023-03-16T06:32:23;9.53;;;6.03;;
5722;SDS011;2886;49.722;8.612;2023-03-16T06:34:49;13.27;;;6.70;;
5722;SDS011;2886;49.722;8.612;2023-03-16T06:37:15;12.80;;;7.03;;
5722;SDS011;2886;49.722;8.612;2023-03-16T06:39:41;8.73;;;5.30;;
5722;SDS011;2886;49.722;8.612;2023-03-16T06:42:06;10.27;;;6.80;;
5722;SDS011;2886;49.722;8.612;2023-03-16T06:44:32;10.93;;;6.00;;
5722;SDS011;2886;49.722;8.612;2023-03-16T06:46:58;8.70;;;5.53;;
5722;SDS011;2886;49.722;8.612;2023-03-16T06:49:25;7.87;;;5.50;;
5722;SDS011;2886;49.722;8.612;2023-03-16T06:51:51;13.17;;;5.90;;
5722;SDS011;2886;49.722;8.612;2023-03-16T06:54:16;9.87;;;5.53;;
5722;SDS011;2886;49.722;8.612;2023-03-16T06:56:42;13.27;;;6.80;;
5722;SDS011;2886;49.722;8.612;2023-03-16T06:59:07;15.27;;;6.40;;
5722;SDS011;2886;49.722;8.612;2023-03-16T07:01:33;16.47;;;6.10;;
5722;SDS011;2886;49.722;8.612;2023-03-16T07:04:00;8.30;;;5.60;;
5722;SDS011;2886;49.722;8.612;2023-03-16T07:06:25;10.40;;;6.93;;
5722;SDS011;2886;49.722;8.612;2023-03-16T07:08:52;9.80;;;5.23;;
5722;SDS011;2886;49.722;8.612;2023-03-16T07:11:17;9.83;;;6.20;;
5722;SDS011;2886;49.722;8.612;2023-03-16T07:13:43;9.63;;;5.67;;
5722;SDS011;2886;49.722;8.612;2023-03-16T07:16:09;12.50;;;6.00;;
5722;SDS011;2886;49.722;8.612;2023-03-16T07:18:35;14.40;;;6.40;;
5722;SDS011;2886;49.722;8.612;2023-03-16T07:21:02;12.73;;;6.40;;
5722;SDS011;2886;49.722;8.612;2023-03-16T07:23:28;8.63;;;5.70;;
5722;SDS011;2886;49.722;8.612;2023-03-16T07:25:53;12.83;;;6.30;;
5722;SDS011;2886;49.722;8.612;2023-03-16T07:28:19;11.93;;;5.80;;
5722;SDS011;2886;49.722;8.612;2023-03-16T07:30:46;15.10;;;7.10;;
5722;SDS011;2886;49.722;8.612;2023-03-16T07:33:12;9.03;;;5.90;;
5722;SDS011;2886;49.722;8.612;2023-03-16T07:35:39;10.53;;;6.87;;
5722;SDS011;2886;49.722;8.612;2023-03-16T07:38:05;11.07;;;5.80;;
5722;SDS011;2886;49.722;8.612;2023-03-16T07:40:31;8.60;;;5.53;;
5722;SDS011;2886;49.722;8.612;2023-03-16T07:42:58;10.23;;;5.00;;
5722;SDS011;2886;49.722;8.612;2023-03-16T07:45:24;8.83;;;5.50;;
5722;SDS011;2886;49.722;8.612;2023-03-16T07:47:52;8.97;;;5.50;;
5722;SDS011;2886;49.722;8.612;2023-03-16T07:50:18;11.03;;;6.27;;
5722;SDS011;2886;49.722;8.612;2023-03-16T07:52:44;11.70;;;5.90;;
5722;SDS011;2886;49.722;8.612;2023-03-16T07:55:10;8.27;;;5.80;;
5722;SDS011;2886;49.722;8.612;2023-03-16T07:57:37;10.47;;;5.60;;
5722;SDS011;2886;49.722;8.612;2023-03-16T08:00:04;11.17;;;6.40;;
5722;SDS011;2886;49.722;8.612;2023-03-16T08:02:31;9.23;;;6.03;;
5722;SDS011;2886;49.722;8.612;2023-03-16T08:04:57;9.03;;;4.90;;
5722;SDS011;2886;49.722;8.612;2023-03-16T08:07:23;11.77;;;5.93;;
5722;SDS011;2886;49.722;8.612;2023-03-16T08:09:49;7.50;;;5.10;;
5722;SDS011;2886;49.722;8.612;2023-03-16T08:12:15;9.33;;;5.47;;
5722;SDS011;2886;49.722;8.612;2023-03-16T08:14:41;9.50;;;5.90;;
5722;SDS011;2886;49.722;8.612;2023-03-16T08:17:09;9.10;;;5.70;;
5722;SDS011;2886;49.722;8.612;2023-03-16T08:19:36;11.70;;;5.10;;
5722;SDS011;2886;49.722;8.612;2023-03-16T08:22:02;8.97;;;5.70;;
5722;SDS011;2886;49.722;8.612;2023-03-16T08:24:29;10.13;;;6.17;;
5722;SDS011;2886;49.722;8.612;2023-03-16T08:26:56;9.57;;;5.43;;
5722;SDS011;2886;49.722;8.612;2023-03-16T08:29:23;7.60;;;4.77;;
5722;SDS011;2886;49.722;8.612;2023-03-16T08:31:49;6.07;;;4.60;;
5722;SDS011;2886;49.722;8.612;2023-03-16T08:34:17;11.70;;;5.50;;
5722;SDS011;2886;49.722;8.612;2023-03-16T08:36:43;8.30;;;5.20;;
5722;SDS011;2886;49.722;8.612;2023-03-16T08:39:09;8.23;;;4.70;;
5722;SDS011;2886;49.722;8.612;2023-03-16T08:41:34;9.97;;;5.03;;
5722;SDS011;2886;49.722;8.612;2023-03-16T08:44:00;8.33;;;4.77;;
5722;SDS011;2886;49.722;8.612;2023-03-16T08:46:27;6.90;;;4.70;;
5722;SDS011;2886;49.722;8.612;2023-03-16T08:48:53;8.00;;;4.47;;
5722;SDS011;2886;49.722;8.612;2023-03-16T08:51:19;15.33;;;5.47;;
5722;SDS011;2886;49.722;8.612;2023-03-16T08:53:46;7.30;;;4.90;;
5722;SDS011;2886;49.722;8.612;2023-03-16T08:56:12;7.23;;;4.73;;
5722;SDS011;2886;49.722;8.612;2023-03-16T08:58:39;9.53;;;4.80;;
5722;SDS011;2886;49.722;8.612;2023-03-16T09:01:10;7.90;;;5.23;;
5722;SDS011;2886;49.722;8.612;2023-03-16T09:03:41;9.43;;;5.37;;
5722;SDS011;2886;49.722;8.612;2023-03-16T09:06:10;8.17;;;5.00;;
5722;SDS011;2886;49.722;8.612;2023-03-16T09:08:37;12.10;;;4.87;;
5722;SDS011;2886;49.722;8.612;2023-03-16T09:11:04;8.23;;;4.87;;
5722;SDS011;2886;49.722;8.612;2023-03-16T09:13:34;8.30;;;4.70;;
5722;SDS011;2886;49.722;8.612;2023-03-16T09:16:00;7.43;;;5.20;;
5722;SDS011;2886;49.722;8.612;2023-03-16T09:18:27;6.30;;;5.20;;
5722;SDS011;2886;49.722;8.612;2023-03-16T09:20:56;11.73;;;5.57;;
5722;SDS011;2886;49.722;8.612;2023-03-16T09:23:23;7.40;;;5.57;;
5722;SDS011;2886;49.722;8.612;2023-03-16T09:25:50;7.27;;;5.00;;
5722;SDS011;2886;49.722;8.612;2023-03-16T09:28:17;10.67;;;6.07;;
5722;SDS011;2886;49.722;8.612;2023-03-16T09:30:43;8.13;;;5.27;;
5722;SDS011;2886;49.722;8.612;2023-03-16T09:33:09;8.90;;;5.50;;
5722;SDS011;2886;49.722;8.612;2023-03-16T09:35:34;11.60;;;6.20;;
5722;SDS011;2886;49.722;8.612;2023-03-16T09:38:01;7.10;;;4.93;;
5722;SDS011;2886;49.722;8.612;2023-03-16T09:40:28;8.37;;;5.20;;
5722;SDS011;2886;49.722;8.612;2023-03-16T09:43:04;13.53;;;5.13;;
5722;SDS011;2886;49.722;8.612;2023-03-16T09:48:21;8.00;;;4.20;;
5722;SDS011;2886;49.722;8.612;2023-03-16T09:50:49;7.40;;;4.90;;
5722;SDS011;2886;49.722;8.612;2023-03-16T09:56:09;3.67;;;3.10;;
5722;SDS011;2886;49.722;8.612;2023-03-16T09:58:40;4.93;;;3.20;;
5722;SDS011;2886;49.722;8.612;2023-03-16T10:01:19;4.40;;;3.73;;
5722;SDS011;2886;49.722;8.612;2023-03-16T10:12:17;3.73;;;2.63;;
5722;SDS011;2886;49.722;8.612;2023-03-16T10:14:53;3.60;;;2.90;;
5722;SDS011;2886;49.722;8.612;2023-03-16T10:17:31;3.73;;;2.53;;
5722;SDS011;2886;49.722;8.612;2023-03-16T10:20:07;3.90;;;2.37;;
5722;SDS011;2886;49.722;8.612;2023-03-16T10:22:42;3.10;;;2.30;;
5722;SDS011;2886;49.722;8.612;2023-03-16T10:25:24;3.13;;;2.30;;
5722;SDS011;2886;49.722;8.612;2023-03-16T10:28:12;3.17;;;2.50;;
5722;SDS011;2886;49.722;8.612;2023-03-16T10:30:42;2.20;;;2.00;;
5722;SDS011;2886;49.722;8.612;2023-03-16T10:33:12;3.57;;;2.40;;
5722;SDS011;2886;49.722;8.612;2023-03-16T10:43:50;2.87;;;2.00;;
5722;SDS011;2886;49.722;8.612;2023-03-16T10:46:19;4.90;;;2.20;;
5722;SDS011;2886;49.722;8.612;2023-03-16T10:48:53;2.70;;;2.20;;
5722;SDS011;2886;49.722;8.612;2023-03-16T10:51:24;4.60;;;2.07;;
5722;SDS011;2886;49.722;8.612;2023-03-16T10:54:02;2.63;;;1.97;;
5722;SDS011;2886;49.722;8.612;2023-03-16T10:56:34;2.57;;;2.30;;
5722;SDS011;2886;49.722;8.612;2023-03-16T10:59:10;3.27;;;1.70;;
5722;SDS011;2886;49.722;8.612;2023-03-16T11:01:58;3.10;;;2.17;;
5722;SDS011;2886;49.722;8.612;2023-03-16T11:04:39;2.80;;;2.23;;
5722;SDS011;2886;49.722;8.612;2023-03-16T11:07:05;5.47;;;2.20;;
5722;SDS011;2886;49.722;8.612;2023-03-16T11:09:33;2.17;;;1.60;;
5722;SDS011;2886;49.722;8.612;2023-03-16T11:14:41;2.13;;;1.50;;
5722;SDS011;2886;49.722;8.612;2023-03-16T11:17:12;2.60;;;1.90;;
5722;SDS011;2886;49.722;8.612;2023-03-16T11:19:55;3.50;;;2.20;;
5722;SDS011;2886;49.722;8.612;2023-03-16T11:22:29;3.07;;;1.80;;
5722;SDS011;2886;49.722;8.612;2023-03-16T11:24:59;3.13;;;1.70;;
5722;SDS011;2886;49.722;8.612;2023-03-16T11:30:02;5.83;;;2.00;;
5722;SDS011;2886;49.722;8.612;2023-03-16T11:32:37;5.00;;;2.43;;
5722;SDS011;2886;49.722;8.612;2023-03-16T11:35:11;1.70;;;1.60;;
5722;SDS011;2886;49.722;8.612;2023-03-16T11:40:45;2.87;;;2.13;;
5722;SDS011;2886;49.722;8.612;2023-03-16T12:00:35;2.20;;;1.87;;
5722;SDS011;2886;49.722;8.612;2023-03-16T12:11:44;2.30;;;1.87;;
5722;SDS011;2886;49.722;8.612;2023-03-16T12:17:08;3.57;;;1.70;;
5722;SDS011;2886;49.722;8.612;2023-03-16T12:19:43;2.07;;;1.50;;
5722;SDS011;2886;49.722;8.612;2023-03-16T12:22:14;1.50;;;1.40;;
5722;SDS011;2886;49.722;8.612;2023-03-16T12:24:44;2.80;;;1.70;;
5722;SDS011;2886;49.722;8.612;2023-03-16T12:33:33;1.90;;;1.43;;
5722;SDS011;2886;49.722;8.612;2023-03-16T12:39:04;4.10;;;1.90;;
5722;SDS011;2886;49.722;8.612;2023-03-16T12:41:50;14.10;;;2.67;;
5722;SDS011;2886;49.722;8.612;2023-03-16T12:44:30;2.10;;;1.37;;
5722;SDS011;2886;49.722;8.612;2023-03-16T12:50:07;1.60;;;1.37;;
5722;SDS011;2886;49.722;8.612;2023-03-16T12:52:39;1.83;;;1.50;;
5722;SDS011;2886;49.722;8.612;2023-03-16T12:55:13;1.50;;;1.40;;
5722;SDS011;2886;49.722;8.612;2023-03-16T12:58:15;1.57;;;1.47;;
5722;SDS011;2886;49.722;8.612;2023-03-16T13:00:42;1.50;;;1.30;;
5722;SDS011;2886;49.722;8.612;2023-03-16T13:03:15;1.80;;;1.70;;
5722;SDS011;2886;49.722;8.612;2023-03-16T13:05:47;5.47;;;3.37;;
5722;SDS011;2886;49.722;8.612;2023-03-16T13:08:17;5.50;;;4.27;;
5722;SDS011;2886;49.722;8.612;2023-03-16T13:13:30;3.00;;;1.87;;
5722;SDS011;2886;49.722;8.612;2023-03-16T13:16:04;2.53;;;1.70;;
5722;SDS011;2886;49.722;8.612;2023-03-16T13:18:34;1.87;;;1.47;;
5722;SDS011;2886;49.722;8.612;2023-03-16T13:21:12;1.60;;;1.50;;
5722;SDS011;2886;49.722;8.612;2023-03-16T13:23:51;2.43;;;1.43;;
5722;SDS011;2886;49.722;8.612;2023-03-16T13:28:52;2.70;;;1.90;;
5722;SDS011;2886;49.722;8.612;2023-03-16T13:31:21;1.97;;;1.30;;
5722;SDS011;2886;49.722;8.612;2023-03-16T13:33:50;2.83;;;2.30;;
5722;SDS011;2886;49.722;8.612;2023-03-16T13:36:20;2.67;;;2.17;;
5722;SDS011;2886;49.722;8.612;2023-03-16T13:39:22;5.47;;;2.30;;
5722;SDS011;2886;49.722;8.612;2023-03-16T13:44:52;5.23;;;1.97;;
5722;SDS011;2886;49.722;8.612;2023-03-16T13:47:23;3.23;;;1.83;;
5722;SDS011;2886;49.722;8.612;2023-03-16T13:49:54;2.60;;;1.77;;
5722;SDS011;2886;49.722;8.612;2023-03-16T13:54:55;1.57;;;1.47;;
5722;SDS011;2886;49.722;8.612;2023-03-16T13:57:23;2.00;;;1.60;;
5722;SDS011;2886;49.722;8.612;2023-03-16T13:59:59;2.30;;;1.87;;
5722;SDS011;2886;49.722;8.612;2023-03-16T14:02:34;1.83;;;1.67;;
5722;SDS011;2886;49.722;8.612;2023-03-16T14:05:10;2.37;;;1.80;;
5722;SDS011;2886;49.722;8.612;2023-03-16T14:07:41;1.87;;;1.60;;
5722;SDS011;2886;49.722;8.612;2023-03-16T14:10:11;2.33;;;1.50;;
5722;SDS011;2886;49.722;8.612;2023-03-16T14:12:49;2.93;;;1.90;;
5722;SDS011;2886;49.722;8.612;2023-03-16T14:15:19;3.10;;;1.70;;
5722;SDS011;2886;49.722;8.612;2023-03-16T14:17:46;2.90;;;1.50;;
5722;SDS011;2886;49.722;8.612;2023-03-16T14:20:22;2.20;;;1.60;;
5722;SDS011;2886;49.722;8.612;2023-03-16T14:22:52;4.07;;;1.53;;
5722;SDS011;2886;49.722;8.612;2023-03-16T14:25:22;1.83;;;1.50;;
5722;SDS011;2886;49.722;8.612;2023-03-16T14:28:00;2.33;;;1.53;;
5722;SDS011;2886;49.722;8.612;2023-03-16T14:30:30;1.70;;;1.20;;
5722;SDS011;2886;49.722;8.612;2023-03-16T14:32:58;1.40;;;1.20;;
5722;SDS011;2886;49.722;8.612;2023-03-16T14:35:32;1.50;;;1.40;;
5722;SDS011;2886;49.722;8.612;2023-03-16T14:38:21;1.90;;;1.67;;
5722;SDS011;2886;49.722;8.612;2023-03-16T14:43:36;1.70;;;1.23;;
5722;SDS011;2886;49.722;8.612;2023-03-16T14:46:05;2.40;;;1.50;;
5722;SDS011;2886;49.722;8.612;2023-03-16T14:48:32;2.43;;;1.60;;
5722;SDS011;2886;49.722;8.612;2023-03-16T14:51:00;2.33;;;1.70;;
5722;SDS011;2886;49.722;8.612;2023-03-16T14:53:27;2.70;;;1.90;;
5722;SDS011;2886;49.722;8.612;2023-03-16T14:55:57;1.37;;;1.27;;
5722;SDS011;2886;49.722;8.612;2023-03-16T14:58:23;1.50;;;1.40;;
5722;SDS011;2886;49.722;8.612;2023-03-16T15:00:49;1.50;;;1.40;;
5722;SDS011;2886;49.722;8.612;2023-03-16T15:03:17;3.47;;;1.67;;
5722;SDS011;2886;49.722;8.612;2023-03-16T15:05:46;3.17;;;1.50;;
5722;SDS011;2886;49.722;8.612;2023-03-16T15:11:09;1.60;;;1.50;;
5722;SDS011;2886;49.722;8.612;2023-03-16T15:13:35;1.40;;;1.30;;
5722;SDS011;2886;49.722;8.612;2023-03-16T15:16:04;3.03;;;1.73;;
5722;SDS011;2886;49.722;8.612;2023-03-16T15:18:33;2.20;;;1.50;;
5722;SDS011;2886;49.722;8.612;2023-03-16T15:20:59;1.67;;;1.53;;
5722;SDS011;2886;49.722;8.612;2023-03-16T15:23:27;6.90;;;2.10;;
5722;SDS011;2886;49.722;8.612;2023-03-16T15:25:54;2.57;;;1.97;;
5722;SDS011;2886;49.722;8.612;2023-03-16T15:28:25;2.97;;;1.60;;
5722;SDS011;2886;49.722;8.612;2023-03-16T15:30:55;2.53;;;2.20;;
5722;SDS011;2886;49.722;8.612;2023-03-16T15:33:22;3.33;;;2.03;;
5722;SDS011;2886;49.722;8.612;2023-03-16T15:35:49;1.93;;;1.63;;
5722;SDS011;2886;49.722;8.612;2023-03-16T15:38:32;5.50;;;1.43;;
5722;SDS011;2886;49.722;8.612;2023-03-16T15:41:00;1.57;;;1.20;;
5722;SDS011;2886;49.722;8.612;2023-03-16T15:43:28;4.00;;;1.50;;
5722;SDS011;2886;49.722;8.612;2023-03-16T15:45:57;1.63;;;1.30;;
5722;SDS011;2886;49.722;8.612;2023-03-16T15:48:27;1.87;;;1.47;;
5722;SDS011;2886;49.722;8.612;2023-03-16T15:53:32;2.20;;;1.87;;
5722;SDS011;2886;49.722;8.612;2023-03-16T15:56:08;2.17;;;1.40;;
5722;SDS011;2886;49.722;8.612;2023-03-16T15:58:36;3.47;;;2.23;;
5722;SDS011;2886;49.722;8.612;2023-03-16T16:01:06;1.63;;;1.50;;
5722;SDS011;2886;49.722;8.612;2023-03-16T16:03:37;6.50;;;1.80;;
5722;SDS011;2886;49.722;8.612;2023-03-16T16:06:03;2.00;;;1.40;;
5722;SDS011;2886;49.722;8.612;2023-03-16T16:08:33;2.93;;;1.77;;
5722;SDS011;2886;49.722;8.612;2023-03-16T16:10:59;5.93;;;2.10;;
5722;SDS011;2886;49.722;8.612;2023-03-16T16:13:26;1.80;;;1.60;;
5722;SDS011;2886;49.722;8.612;2023-03-16T16:15:53;3.87;;;2.50;;
5722;SDS011;2886;49.722;8.612;2023-03-16T16:18:31;2.27;;;1.40;;
5722;SDS011;2886;49.722;8.612;2023-03-16T16:21:01;2.90;;;1.50;;
5722;SDS011;2886;49.722;8.612;2023-03-16T16:23:29;2.30;;;1.63;;
5722;SDS011;2886;49.722;8.612;2023-03-16T16:25:57;4.10;;;2.10;;
5722;SDS011;2886;49.722;8.612;2023-03-16T16:28:28;5.57;;;1.70;;
5722;SDS011;2886;49.722;8.612;2023-03-16T16:30:56;2.07;;;1.80;;
5722;SDS011;2886;49.722;8.612;2023-03-16T16:33:27;1.93;;;1.80;;
5722;SDS011;2886;49.722;8.612;2023-03-16T16:35:57;3.63;;;1.70;;
5722;SDS011;2886;49.722;8.612;2023-03-16T16:38:27;5.23;;;2.07;;
5722;SDS011;2886;49.722;8.612;2023-03-16T16:40:53;2.43;;;1.77;;
5722;SDS011;2886;49.722;8.612;2023-03-16T16:43:28;1.77;;;1.40;;
5722;SDS011;2886;49.722;8.612;2023-03-16T16:45:55;3.33;;;2.10;;
5722;SDS011;2886;49.722;8.612;2023-03-16T16:48:31;3.90;;;1.70;;
5722;SDS011;2886;49.722;8.612;2023-03-16T16:51:01;2.00;;;1.40;;
5722;SDS011;2886;49.722;8.612;2023-03-16T16:53:31;1.63;;;1.53;;
5722;SDS011;2886;49.722;8.612;2023-03-16T16:55:57;2.23;;;1.60;;
5722;SDS011;2886;49.722;8.612;2023-03-16T16:58:23;2.00;;;1.60;;
5722;SDS011;2886;49.722;8.612;2023-03-16T17:00:58;10.80;;;1.60;;
5722;SDS011;2886;49.722;8.612;2023-03-16T17:03:25;3.70;;;2.00;;